Fords Creek, Mississippi
Current Conditions -  °F | °C
As of 8:55 AM on Thursday 23 Oct 2014 (Local Time) from KBXA Reporting Station
NA  
Wind Chill: 13°   Ceiling: NA
Heat Index: 13°   Visibility: 10mi
Dew Point:   Wind: 5mph
Humidity: 73%   Direction: 50°NE
Pressure: 30.15"   Gusts: NA
Location:  30.8781°N, 89.5858°W
Report Text: KBXA 231355Z AUTO 05004KT 10SM 13/08 A3015 RMK AO2 T01260078
Loading
Personal Weather Stations






























Interactive Weather Map
Tropical Storm Tracking
New forecast layout! Learn more

10-Day Weather Forecast

Advertisements
Track Severe Weather on mobile